createdAt,value
2019-03-24T00:01:51.691Z,18.80
2019-03-24T00:04:22.441Z,18.07
2019-03-24T00:06:53.203Z,17.23
2019-03-24T00:09:24.354Z,19.65
2019-03-24T00:11:55.074Z,18.57
2019-03-24T00:14:25.753Z,18.90
2019-03-24T00:16:58.129Z,19.45
2019-03-24T00:19:29.308Z,18.85
2019-03-24T00:22:00.482Z,19.45
2019-03-24T00:24:31.186Z,20.30
2019-03-24T00:27:02.536Z,21.70
2019-03-24T00:29:33.452Z,21.73
2019-03-24T00:32:04.775Z,23.42
2019-03-24T00:34:35.997Z,21.42
2019-03-24T00:37:06.778Z,21.07
2019-03-24T00:39:37.978Z,21.27
2019-03-24T00:42:09.397Z,20.95
2019-03-24T00:44:40.488Z,20.32
2019-03-24T00:47:11.466Z,21.27
2019-03-24T00:49:42.466Z,19.82
2019-03-24T00:52:13.847Z,19.85
2019-03-24T00:54:45.437Z,19.82
2019-03-24T00:57:16.712Z,19.30
2019-03-24T00:59:48.037Z,18.57
2019-03-24T01:02:20.035Z,20.55
2019-03-24T01:04:50.821Z,19.67
2019-03-24T01:07:22.400Z,19.32
2019-03-24T01:09:53.173Z,19.98
2019-03-24T01:12:24.416Z,19.15
2019-03-24T01:14:55.413Z,19.10
2019-03-24T01:17:26.309Z,20.52
2019-03-24T01:19:58.320Z,19.87
2019-03-24T01:22:29.824Z,19.98
2019-03-24T01:25:04.102Z,20.60
2019-03-24T01:27:35.363Z,19.55
2019-03-24T01:30:12.375Z,20.55
2019-03-24T01:32:44.062Z,20.25
2019-03-24T01:35:15.569Z,20.65
2019-03-24T01:37:47.048Z,19.70
2019-03-24T01:40:20.581Z,21.35
2019-03-24T01:42:52.361Z,19.17
2019-03-24T01:45:23.638Z,18.07
2019-03-24T01:47:55.754Z,17.15
2019-03-24T01:50:27.832Z,18.57
2019-03-24T01:52:59.542Z,18.57
2019-03-24T01:55:30.629Z,18.40
2019-03-24T01:58:02.122Z,18.07
2019-03-24T02:00:33.912Z,18.23
2019-03-24T02:03:08.573Z,18.57
2019-03-24T02:05:41.292Z,18.40
2019-03-24T02:08:15.930Z,18.17
2019-03-24T02:10:47.834Z,17.52
2019-03-24T02:13:19.199Z,17.90
2019-03-24T02:15:50.596Z,18.45
2019-03-24T02:18:22.064Z,18.57
2019-03-24T02:20:54.594Z,18.52
2019-03-24T02:23:27.334Z,18.75
2019-03-24T02:25:58.819Z,18.77
2019-03-24T02:28:29.757Z,17.98
2019-03-24T02:31:01.834Z,17.87
2019-03-24T02:33:33.237Z,17.05
2019-03-24T02:36:05.416Z,15.45
2019-03-24T02:38:36.340Z,17.05
2019-03-24T02:41:07.349Z,16.57
2019-03-24T02:43:39.083Z,17.02
2019-03-24T02:46:23.449Z,15.20
2019-03-24T02:48:44.535Z,16.73
2019-03-24T02:51:15.692Z,15.43
2019-03-24T02:53:48.702Z,16.93
2019-03-24T02:56:19.713Z,17.35
2019-03-24T02:58:51.752Z,16.45
2019-03-24T03:01:23.798Z,15.68
2019-03-24T03:03:59.446Z,15.20
2019-03-24T03:06:30.779Z,21.23
2019-03-24T03:09:01.878Z,16.25
2019-03-24T03:11:34.702Z,17.02
2019-03-24T03:14:05.719Z,15.80
2019-03-24T03:16:39.366Z,14.35
2019-03-24T03:19:10.845Z,16.07
2019-03-24T03:21:43.158Z,15.38
2019-03-24T03:24:14.011Z,15.70
2019-03-24T03:26:45.269Z,15.95
2019-03-24T03:29:17.354Z,18.40
2019-03-24T03:31:49.697Z,18.95
2019-03-24T03:34:21.700Z,18.20
2019-03-24T03:36:52.688Z,17.30
2019-03-24T03:39:24.362Z,18.57
2019-03-24T03:41:57.159Z,18.42
2019-03-24T03:44:28.443Z,18.05
2019-03-24T03:47:00.258Z,18.45
2019-03-24T03:49:32.225Z,19.67
2019-03-24T03:52:03.433Z,18.62
2019-03-24T03:54:35.906Z,18.20
2019-03-24T03:57:06.991Z,17.25
2019-03-24T03:59:38.305Z,16.87
2019-03-24T04:02:09.750Z,16.67
2019-03-24T04:04:43.733Z,15.58
2019-03-24T04:07:17.269Z,17.62
2019-03-24T04:09:48.625Z,17.07
2019-03-24T04:12:27.199Z,16.05
2019-03-24T04:15:03.534Z,14.58
2019-03-24T04:17:34.534Z,16.10
2019-03-24T04:20:12.079Z,16.50
2019-03-24T04:22:45.648Z,14.90
2019-03-24T04:25:18.738Z,15.10
2019-03-24T04:27:50.062Z,14.60
2019-03-24T04:30:23.980Z,15.13
2019-03-24T04:32:55.260Z,15.38
2019-03-24T04:35:26.428Z,16.15
2019-03-24T04:37:57.684Z,15.00
2019-03-24T04:40:28.617Z,16.52
2019-03-24T04:42:59.595Z,16.42
2019-03-24T04:45:31.791Z,15.72
2019-03-24T04:48:03.348Z,16.17
2019-03-24T04:50:34.968Z,17.70
2019-03-24T04:53:06.051Z,15.80
2019-03-24T04:55:41.179Z,16.35
2019-03-24T04:58:12.238Z,15.80
2019-03-24T05:00:43.870Z,16.60
2019-03-24T05:03:14.873Z,15.93
2019-03-24T05:05:46.361Z,14.53
2019-03-24T05:08:18.405Z,14.95
2019-03-24T05:10:49.927Z,14.05
2019-03-24T05:13:24.381Z,14.50
2019-03-24T05:15:55.422Z,15.13
2019-03-24T05:18:34.090Z,15.43
2019-03-24T05:21:05.057Z,15.45
2019-03-24T05:23:36.699Z,15.15
2019-03-24T05:26:07.696Z,15.63
2019-03-24T05:28:40.126Z,15.80
2019-03-24T05:31:11.089Z,16.15
2019-03-24T05:33:42.681Z,16.90
2019-03-24T05:36:13.627Z,16.32
2019-03-24T05:38:45.070Z,15.80
2019-03-24T05:41:16.575Z,16.37
2019-03-24T05:43:48.434Z,16.23
2019-03-24T05:46:19.669Z,15.48
2019-03-24T05:48:51.610Z,16.97
2019-03-24T05:51:22.978Z,16.95
2019-03-24T05:53:54.783Z,16.23
2019-03-24T05:56:26.661Z,16.45
2019-03-24T05:58:58.772Z,16.73
2019-03-24T06:01:29.696Z,16.42
2019-03-24T06:04:05.772Z,16.48
2019-03-24T06:06:41.138Z,16.67
2019-03-24T06:09:12.144Z,15.65
2019-03-24T06:11:43.150Z,16.05
2019-03-24T06:14:13.992Z,15.68
2019-03-24T06:16:45.075Z,14.95
2019-03-24T06:19:16.104Z,15.70
2019-03-24T06:21:50.515Z,15.25
2019-03-24T06:24:21.559Z,14.58
2019-03-24T06:26:59.509Z,16.07
2019-03-24T06:29:30.625Z,14.75
2019-03-24T06:32:01.544Z,14.68
2019-03-24T06:34:32.592Z,14.45
2019-03-24T06:37:03.874Z,14.28
2019-03-24T06:39:34.883Z,14.28
2019-03-24T06:42:06.029Z,13.68
2019-03-24T06:44:38.356Z,13.55
2019-03-24T06:47:09.666Z,12.90
2019-03-24T06:49:40.631Z,12.63
2019-03-24T06:52:12.145Z,13.95
2019-03-24T06:54:43.464Z,13.00
2019-03-24T06:57:16.916Z,13.05
2019-03-24T06:59:47.618Z,12.50
2019-03-24T07:02:27.495Z,13.18
2019-03-24T07:04:59.938Z,14.10
2019-03-24T07:07:31.102Z,12.23
2019-03-24T07:10:04.866Z,12.55
2019-03-24T07:12:41.204Z,12.70
2019-03-24T07:15:19.359Z,13.03
2019-03-24T07:17:51.132Z,13.35
2019-03-24T07:20:24.851Z,14.00
2019-03-24T07:22:55.866Z,12.33
2019-03-24T07:25:27.332Z,14.25
2019-03-24T07:28:00.255Z,12.75
2019-03-24T07:30:34.466Z,12.03
2019-03-24T07:33:06.174Z,13.93
2019-03-24T08:06:22.079Z,16.40
2019-03-24T08:08:56.551Z,19.80
2019-03-24T08:11:29.506Z,21.52
2019-03-24T08:14:02.112Z,19.67
2019-03-24T08:16:35.301Z,20.00
2019-03-24T08:21:47.980Z,18.40
2019-03-24T08:24:22.063Z,20.85
2019-03-24T08:27:03.581Z,18.98
2019-03-24T08:29:38.981Z,19.25
2019-03-24T08:32:20.209Z,19.20
2019-03-24T08:34:52.190Z,19.65
2019-03-24T08:37:30.368Z,20.52
2019-03-24T08:40:46.867Z,20.17
2019-03-24T08:43:19.692Z,17.98
2019-03-24T08:50:38.050Z,20.57
2019-03-24T08:53:09.163Z,18.80
2019-03-24T08:55:41.886Z,20.88
2019-03-24T08:58:13.692Z,20.37
2019-03-24T09:00:44.825Z,19.07
2019-03-24T09:03:15.479Z,21.45
2019-03-24T09:05:47.233Z,19.65
2019-03-24T09:08:18.910Z,17.73
2019-03-24T09:10:49.694Z,19.90
2019-03-24T09:13:21.142Z,22.45
2019-03-24T09:15:51.874Z,20.30
2019-03-24T09:18:23.085Z,19.17
2019-03-24T09:20:54.164Z,19.67
2019-03-24T09:23:24.969Z,19.80
2019-03-24T09:25:55.610Z,19.95
2019-03-24T09:28:32.434Z,21.35
2019-03-24T09:31:03.632Z,20.97
2019-03-24T09:33:35.281Z,19.17
2019-03-24T09:36:06.513Z,20.30
2019-03-24T09:38:38.553Z,19.65
2019-03-24T09:41:09.293Z,20.17
2019-03-24T09:43:40.995Z,20.40
2019-03-24T09:46:12.660Z,22.60
2019-03-24T09:48:43.482Z,19.57
2019-03-24T09:51:15.572Z,23.80
2019-03-24T09:53:46.649Z,23.00
2019-03-24T09:56:18.119Z,24.10
2019-03-24T09:58:49.923Z,23.42
2019-03-24T10:01:21.295Z,20.97
2019-03-24T10:03:52.510Z,18.15
2019-03-24T10:06:23.693Z,22.77
2019-03-24T10:08:54.608Z,23.75
2019-03-24T10:11:26.277Z,23.92
2019-03-24T10:13:59.169Z,22.37
2019-03-24T10:16:32.025Z,28.17
2019-03-24T10:19:13.591Z,24.87
2019-03-24T10:21:36.815Z,25.08
2019-03-24T10:24:08.026Z,161.90
2019-03-24T10:26:39.027Z,53.85
2019-03-24T10:29:09.946Z,44.08
2019-03-24T10:31:42.696Z,38.73
2019-03-24T10:34:14.248Z,33.75
2019-03-24T10:36:45.601Z,27.45
2019-03-24T10:39:17.026Z,25.88
2019-03-24T10:41:49.628Z,20.50
2019-03-24T10:44:20.882Z,20.52
2019-03-24T10:46:52.375Z,20.60
2019-03-24T10:49:25.017Z,30.02
2019-03-24T10:51:56.440Z,26.87
2019-03-24T10:54:28.122Z,28.17
2019-03-24T10:56:59.056Z,27.35
2019-03-24T10:59:30.670Z,27.90
2019-03-24T11:02:01.532Z,27.87
2019-03-24T11:04:32.836Z,26.37
2019-03-24T11:07:03.953Z,26.57
2019-03-24T11:09:35.827Z,24.95
2019-03-24T11:12:06.566Z,23.95
2019-03-24T11:14:37.233Z,26.15
2019-03-24T11:17:09.503Z,26.23
2019-03-24T11:19:40.340Z,27.42
2019-03-24T11:22:12.502Z,27.22
2019-03-24T11:24:44.025Z,27.37
2019-03-24T11:27:15.466Z,26.07
2019-03-24T11:29:48.082Z,27.17
2019-03-24T11:32:19.086Z,29.07
2019-03-24T11:34:50.778Z,26.68
2019-03-24T11:37:22.215Z,29.07
2019-03-24T11:39:52.948Z,29.15
2019-03-24T11:42:23.641Z,27.98
2019-03-24T11:44:54.840Z,27.80
2019-03-24T11:47:26.822Z,27.42
2019-03-24T11:49:58.892Z,27.32
2019-03-24T11:52:30.151Z,29.10
2019-03-24T11:55:02.791Z,26.30
2019-03-24T11:57:33.514Z,28.62
2019-03-24T12:00:05.363Z,27.52
2019-03-24T12:02:35.999Z,29.32
2019-03-24T12:05:07.640Z,29.42
2019-03-24T12:07:38.902Z,31.37
2019-03-24T12:10:09.993Z,28.95
2019-03-24T12:12:41.129Z,28.95
2019-03-24T12:15:12.414Z,27.87
2019-03-24T12:17:43.842Z,27.50
2019-03-24T12:20:15.658Z,26.65
2019-03-24T12:22:46.485Z,26.95
2019-03-24T12:25:17.270Z,26.05
2019-03-24T12:27:48.722Z,27.77
2019-03-24T12:30:19.801Z,28.25
2019-03-24T12:32:50.563Z,28.75
2019-03-24T12:35:21.893Z,27.73
2019-03-24T12:37:53.951Z,26.93
2019-03-24T12:40:25.431Z,28.10
2019-03-24T12:42:56.649Z,26.95
2019-03-24T12:45:28.563Z,27.20
2019-03-24T12:47:59.566Z,26.55
2019-03-24T12:50:31.629Z,26.25
2019-03-24T12:53:03.574Z,24.95
2019-03-24T12:55:35.100Z,26.37
2019-03-24T12:58:06.420Z,28.42
2019-03-24T13:00:40.891Z,28.50
2019-03-24T13:03:12.660Z,27.85
2019-03-24T13:05:43.817Z,24.20
2019-03-24T13:08:16.703Z,26.52
2019-03-24T13:10:48.067Z,26.40
2019-03-24T13:13:19.165Z,27.52
2019-03-24T13:15:50.421Z,27.25
2019-03-24T13:18:21.626Z,27.00
2019-03-24T13:20:52.439Z,27.27
2019-03-24T13:23:25.857Z,26.85
2019-03-24T13:25:57.843Z,27.37
2019-03-24T13:28:29.827Z,27.37
2019-03-24T13:31:01.529Z,26.73
2019-03-24T13:33:32.726Z,27.35
2019-03-24T13:36:09.800Z,25.37
2019-03-24T13:38:41.294Z,25.88
2019-03-24T13:41:12.653Z,26.87
2019-03-24T13:43:44.252Z,26.77
2019-03-24T13:46:15.137Z,26.77
2019-03-24T13:48:45.977Z,26.40
2019-03-24T13:51:17.334Z,26.55
2019-03-24T13:53:48.882Z,24.75
2019-03-24T13:56:20.422Z,22.82
2019-03-24T13:58:51.680Z,23.75
2019-03-24T14:01:22.764Z,21.20
2019-03-24T14:03:53.657Z,24.98
2019-03-24T14:06:24.430Z,26.57
2019-03-24T14:08:55.190Z,24.52
2019-03-24T14:11:25.941Z,23.73
2019-03-24T14:13:57.034Z,25.12
2019-03-24T14:16:27.972Z,24.40
2019-03-24T14:18:59.141Z,25.35
2019-03-24T14:21:30.585Z,26.20
2019-03-24T14:24:01.463Z,24.37
2019-03-24T14:26:32.340Z,25.88
2019-03-24T14:29:03.690Z,25.75
2019-03-24T14:31:35.890Z,23.00
2019-03-24T14:34:07.417Z,24.70
2019-03-24T14:36:38.197Z,25.05
2019-03-24T14:39:09.436Z,25.15
2019-03-24T14:41:41.228Z,23.27
2019-03-24T14:44:11.954Z,24.70
2019-03-24T14:46:43.480Z,25.32
2019-03-24T14:49:14.416Z,22.07
2019-03-24T14:51:45.599Z,23.55
2019-03-24T15:19:51.912Z,24.02
2019-03-24T15:26:57.418Z,24.87
2019-03-24T20:58:09.455Z,36.20
2019-03-24T21:00:40.695Z,34.05
2019-03-24T21:03:12.221Z,36.15
2019-03-24T21:05:44.497Z,35.25
2019-03-24T21:08:16.209Z,37.65
2019-03-24T21:10:51.851Z,35.78
2019-03-24T21:13:28.030Z,36.30
2019-03-24T21:16:01.658Z,37.33
2019-03-24T21:18:34.064Z,37.27
2019-03-24T21:21:16.052Z,36.88
2019-03-24T21:26:22.079Z,35.38
2019-03-24T21:28:54.020Z,38.05
2019-03-24T21:31:25.633Z,36.88
2019-03-24T21:33:56.865Z,35.83
2019-03-24T21:36:30.971Z,36.10
2019-03-24T21:39:07.643Z,35.38
2019-03-24T21:41:49.243Z,35.55
2019-03-24T21:44:23.276Z,36.15
2019-03-24T21:47:06.370Z,35.05
2019-03-24T21:49:41.209Z,35.70
2019-03-24T21:52:16.882Z,36.55
2019-03-24T21:54:57.462Z,35.75
2019-03-24T21:57:35.259Z,33.23
2019-03-24T22:00:17.895Z,35.48
2019-03-24T22:02:57.602Z,35.20
2019-03-24T22:05:31.576Z,36.95
2019-03-24T22:08:04.122Z,35.52
2019-03-24T22:10:38.027Z,37.42
2019-03-24T22:13:13.142Z,36.00
2019-03-24T22:16:07.655Z,35.55
2019-03-24T22:18:41.345Z,33.65
2019-03-24T22:21:13.688Z,35.03
2019-03-24T22:23:57.271Z,34.63
2019-03-24T22:26:35.682Z,37.05
2019-03-24T22:29:11.052Z,36.93
2019-03-24T22:31:47.966Z,35.63
2019-03-24T22:34:38.230Z,34.23
2019-03-24T22:37:18.440Z,34.63
2019-03-24T22:40:01.497Z,35.95
2019-03-24T22:42:35.785Z,33.50
2019-03-24T22:45:10.179Z,35.58
2019-03-24T22:48:01.486Z,32.28
2019-03-24T22:50:37.961Z,34.05
2019-03-24T22:53:15.555Z,35.43
2019-03-24T22:55:50.415Z,36.25
2019-03-24T22:58:26.677Z,33.48
2019-03-24T23:01:08.690Z,32.70
2019-03-24T23:03:54.240Z,36.90
2019-03-24T23:06:29.854Z,35.58
2019-03-24T23:09:08.171Z,35.10
2019-03-24T23:11:51.711Z,35.98
2019-03-24T23:14:30.414Z,33.35
2019-03-24T23:17:19.299Z,35.88
2019-03-24T23:19:53.588Z,34.90
2019-03-24T23:22:33.989Z,38.70
2019-03-24T23:25:13.695Z,35.00
2019-03-24T23:28:01.361Z,33.05
2019-03-24T23:30:45.875Z,33.15
2019-03-24T23:33:30.696Z,33.48
2019-03-24T23:36:13.867Z,32.73
2019-03-24T23:38:49.727Z,34.50
2019-03-24T23:41:25.595Z,35.75
2019-03-24T23:43:59.415Z,36.35
2019-03-24T23:46:43.215Z,35.92
2019-03-24T23:49:49.441Z,36.10
2019-03-24T23:52:21.670Z,35.55
2019-03-24T23:54:52.646Z,33.50
2019-03-24T23:57:24.450Z,38.02
2019-03-24T23:59:55.750Z,37.05
